• Join FlightAware (Why Join?)
  • Login
  • US Flag 
06:36AM EDT


 

Airport Tracker/Info


-or-


 

Live Flight TrackerFlight Track Log ✈ TPA703 ✈ 08-Jun-2013 ✈ KMIA - SKRG / MDE

Flight Track Log - Related Links

Times and Time Zones

All times are in EDT time to prevent confusion due to time zone crossing. See the TPA703 flight status page for this flight to view local times or setup timezone preferences in your user account.

Time Position Orientation Groundspeed Altitude Reporting Facility
EDT Latitude Longitude Course Direction KTS MPH feet Rate Location/Type
08:31AM 25.7856 -80.2719 111° Southeast 191 220 900  Level Miami Center
08:31AM 25.7758 -80.2439 111° Southeast 200 230 1,800 1,800 Climbing Miami Center
08:32AM 25.7603 -80.1903 108° East 243 280 3,200 2,340 Climbing Miami Center
08:33AM 25.6986 -80.1494 149° Southeast 249 287 6,000 2,880 Climbing Miami Center
08:34AM 25.6242 -80.1175 159° South 257 296 9,000 2,400 Climbing Miami Center
08:35AM 25.5578 -80.0903 160° South 270 311 10,800 1,500 Climbing Miami Center
08:36AM 25.4625 -80.0533 161° South 312 359 12,000 1,800 Climbing Miami Center
08:37AM 25.3592 -80.0114 160° South 364 419 14,400 2,400 Climbing Miami Center
08:38AM 25.2533 -79.9697 160° South 392 451 16,800 2,220 Climbing Miami Center
08:39AM 25.1414 -79.9256 160° South 415 478 18,900 1,980 Climbing Miami Center
08:40AM 25.0233 -79.8836 162° South 434 499 20,800 1,800 Climbing Miami Center
08:41AM 24.9008 -79.8372 161° South 447 514 22,600 1,800 Climbing Miami Center
08:42AM 24.7764 -79.7931 162° South 462 532 24,400 1,740 Climbing Miami Center
08:43AM 24.6500 -79.7489 162° South 467 537 26,100 1,680 Climbing Miami Center
08:44AM 24.5233 -79.7003 161° South 480 552 27,800 1,800 Climbing Miami Center
08:45AM 24.3969 -79.6539 162° South 485 558 29,800 1,920 Climbing Miami Center
08:46AM 24.2722 -79.6078 161° South 474 545 31,700 1,560 Climbing Miami Center
08:47AM 24.1519 -79.5664 163° South 469 540 33,000 600 Climbing Miami Center
08:48AM 24.0294 -79.5206 161° South 464 534 33,000  Level Miami Center
08:50AM 23.8617 -79.4538 163° South  Level FlightAware Approximate
08:57AM 23.0377 -79.1659 162° South  Level FlightAware Approximate
08:58AM 22.9202 -79.1242 162° South  Level FlightAware Approximate
08:59AM 22.8027 -79.0825 162° South  Level FlightAware Approximate
09:00AM 22.6852 -79.0410 162° South  Level FlightAware Approximate
09:01AM 22.5676 -78.9995 162° South  Level FlightAware Approximate
09:02AM 22.4501 -78.9580 162° South  Level FlightAware Approximate
09:03AM 22.3326 -78.9166 162° South  Level FlightAware Approximate
09:04AM 22.2150 -78.8753 162° South  Level FlightAware Approximate
09:05AM 22.0974 -78.8341 162° South  Level FlightAware Approximate
09:06AM 21.9795 -78.7941 165° South  Level FlightAware Approximate
09:07AM 21.8601 -78.7600 165° South  Level FlightAware Approximate
09:08AM 21.7406 -78.7258 165° South  Level FlightAware Approximate
09:09AM 21.6211 -78.6918 165° South  Level FlightAware Approximate
09:10AM 21.5016 -78.6578 165° South  Level FlightAware Approximate
09:11AM 21.3821 -78.6238 165° South  Level FlightAware Approximate
09:12AM 21.2626 -78.5899 165° South  Level FlightAware Approximate
09:13AM 21.1430 -78.5561 165° South  Level FlightAware Approximate
09:14AM 21.0235 -78.5223 165° South  Level FlightAware Approximate
09:15AM 20.9040 -78.4886 165° South  Level FlightAware Approximate
09:16AM 20.7844 -78.4549 165° South  Level FlightAware Approximate
09:17AM 20.6649 -78.4213 165° South  Level FlightAware Approximate
09:18AM 20.5453 -78.3877 165° South  Level FlightAware Approximate
09:19AM 20.4258 -78.3542 165° South  Level FlightAware Approximate
09:20AM 20.3062 -78.3207 165° South  Level FlightAware Approximate
09:21AM 20.1866 -78.2873 165° South  Level FlightAware Approximate
09:22AM 20.0671 -78.2539 165° South  Level FlightAware Approximate
09:23AM 19.9475 -78.2206 165° South  Level FlightAware Approximate
09:24AM 19.8279 -78.1872 165° South  Level FlightAware Approximate
09:25AM 19.7084 -78.1539 165° South  Level FlightAware Approximate
09:26AM 19.5888 -78.1206 165° South  Level FlightAware Approximate
09:27AM 19.4692 -78.0873 165° South  Level FlightAware Approximate
09:28AM 19.3496 -78.0541 165° South  Level FlightAware Approximate
09:29AM 19.2300 -78.0210 165° South  Level FlightAware Approximate
09:30AM 19.1105 -77.9878 165° South  Level FlightAware Approximate
09:31AM 18.9909 -77.9548 165° South  Level FlightAware Approximate
09:32AM 18.8713 -77.9218 165° South  Level FlightAware Approximate
09:33AM 18.7516 -77.8888 165° South  Level FlightAware Approximate
09:34AM 18.6320 -77.8559 165° South  Level FlightAware Approximate
09:35AM 18.5124 -77.8230 165° South  Level FlightAware Approximate
09:36AM 18.3928 -77.7902 165° South  Level FlightAware Approximate
09:37AM 18.2731 -77.7574 165° South  Level FlightAware Approximate
09:38AM 18.1535 -77.7247 165° South  Level FlightAware Approximate
09:39AM 18.0339 -77.6920 165° South  Level FlightAware Approximate
09:40AM 17.9142 -77.6593 165° South  Level FlightAware Approximate
09:41AM 17.7945 -77.6267 165° South  Level FlightAware Approximate
09:42AM 17.6749 -77.5942 165° South  Level FlightAware Approximate
09:43AM 17.5552 -77.5617 165° South  Level FlightAware Approximate
09:44AM 17.4356 -77.5292 165° South  Level FlightAware Approximate
09:45AM 17.3159 -77.4968 165° South  Level FlightAware Approximate
09:46AM 17.1962 -77.4644 166° South  Level FlightAware Approximate
09:47AM 17.0765 -77.4320 166° South  Level FlightAware Approximate
09:48AM 16.9568 -77.3997 166° South  Level FlightAware Approximate
09:49AM 16.8371 -77.3675 166° South  Level FlightAware Approximate
09:50AM 16.7174 -77.3353 166° South  Level FlightAware Approximate
09:51AM 16.5977 -77.3031 166° South  Level FlightAware Approximate
09:52AM 16.4780 -77.2709 166° South  Level FlightAware Approximate
09:53AM 16.3583 -77.2385 165° South  Level FlightAware Approximate
09:54AM 16.2388 -77.2056 165° South  Level FlightAware Approximate
09:55AM 16.1193 -77.1727 165° South  Level FlightAware Approximate
09:56AM 15.9998 -77.1399 165° South  Level FlightAware Approximate
09:57AM 15.8803 -77.1071 165° South  Level FlightAware Approximate
09:58AM 15.7607 -77.0743 165° South  Level FlightAware Approximate
09:59AM 15.6412 -77.0416 165° South  Level FlightAware Approximate
10:00AM 15.5217 -77.0089 165° South  Level FlightAware Approximate
10:01AM 15.4021 -76.9762 165° South  Level FlightAware Approximate
10:02AM 15.2826 -76.9436 165° South  Level FlightAware Approximate
10:03AM 15.1630 -76.9110 165° South  Level FlightAware Approximate
10:04AM 15.0435 -76.8785 165° South  Level FlightAware Approximate
10:05AM 14.9228 -76.8513 169° South  Level FlightAware Approximate
10:06AM 14.8014 -76.8272 169° South  Level FlightAware Approximate
10:07AM 14.6800 -76.8031 169° South  Level FlightAware Approximate
10:08AM 14.5586 -76.7790 169° South  Level FlightAware Approximate
10:09AM 14.4372 -76.7550 169° South  Level FlightAware Approximate
10:10AM 14.3158 -76.7310 169° South  Level FlightAware Approximate
10:11AM 14.1944 -76.7070 169° South  Level FlightAware Approximate
10:12AM 14.0730 -76.6830 169° South  Level FlightAware Approximate
10:13AM 13.9515 -76.6591 169° South  Level FlightAware Approximate
10:14AM 13.8301 -76.6351 169° South  Level FlightAware Approximate
10:15AM 13.7087 -76.6113 169° South  Level FlightAware Approximate
10:16AM 13.5873 -76.5874 169° South  Level FlightAware Approximate
10:17AM 13.4660 -76.5629 169° South  Level FlightAware Approximate
10:18AM 13.3447 -76.5383 169° South  Level FlightAware Approximate
10:19AM 13.2235 -76.5137 169° South  Level FlightAware Approximate
10:20AM 13.1022 -76.4891 169° South  Level FlightAware Approximate
10:21AM 12.9809 -76.4645 169° South  Level FlightAware Approximate
10:22AM 12.8596 -76.4400 169° South  Level FlightAware Approximate
10:23AM 12.7383 -76.4155 169° South  Level FlightAware Approximate
10:24AM 12.6171 -76.3910 169° South  Level FlightAware Approximate
10:25AM 12.4958 -76.3666 169° South  Level FlightAware Approximate
10:26AM 12.3745 -76.3421 169° South  Level FlightAware Approximate
10:27AM 12.2532 -76.3177 169° South  Level FlightAware Approximate
10:28AM 12.1319 -76.2934 169° South  Level FlightAware Approximate
10:29AM 12.0106 -76.2690 169° South  Level FlightAware Approximate
10:30AM 11.8893 -76.2447 169° South  Level FlightAware Approximate
10:31AM 11.7680 -76.2203 169° South  Level FlightAware Approximate
10:32AM 11.6467 -76.1960 169° South  Level FlightAware Approximate
10:33AM 11.5254 -76.1718 169° South  Level FlightAware Approximate
10:34AM 11.4041 -76.1475 169° South  Level FlightAware Approximate
10:35AM 11.2828 -76.1231 169° South  Level FlightAware Approximate
10:36AM 11.1615 -76.0988 169° South  Level FlightAware Approximate
10:37AM 11.0402 -76.0744 169° South  Level FlightAware Approximate
10:38AM 10.9189 -76.0501 169° South  Level FlightAware Approximate
10:39AM 10.7976 -76.0259 169° South  Level FlightAware Approximate
10:40AM 10.6763 -76.0016 169° South  Level FlightAware Approximate
10:41AM 10.5550 -75.9774 169° South  Level FlightAware Approximate
10:42AM 10.4338 -75.9531 169° South  Level FlightAware Approximate
10:43AM 10.3125 -75.9289 169° South  Level FlightAware Approximate
10:44AM 10.1911 -75.9047 169° South  Level FlightAware Approximate
10:45AM 10.0698 -75.8806 169° South  Level FlightAware Approximate
10:46AM 9.9484 -75.8570 170° South  Level FlightAware Approximate
10:47AM 9.8269 -75.8341 170° South  Level FlightAware Approximate
10:48AM 9.7053 -75.8113 170° South  Level FlightAware Approximate
10:49AM 9.5838 -75.7885 170° South  Level FlightAware Approximate
10:50AM 9.4622 -75.7657 170° South  Level FlightAware Approximate
10:51AM 9.3407 -75.7429 170° South  Level FlightAware Approximate
10:52AM 9.2191 -75.7201 170° South  Level FlightAware Approximate
10:53AM 9.0976 -75.6974 170° South  Level FlightAware Approximate
10:54AM 8.9760 -75.6747 170° South  Level FlightAware Approximate
10:55AM 8.8547 -75.6504 168° South  Level FlightAware Approximate
10:56AM 8.7336 -75.6254 168° South  Level FlightAware Approximate
10:57AM 8.6125 -75.6003 168° South  Level FlightAware Approximate
10:58AM 8.4914 -75.5753 168° South  Level FlightAware Approximate
10:59AM 8.3703 -75.5503 168° South  Level FlightAware Approximate
11:00AM 8.2492 -75.5254 168° South  Level FlightAware Approximate
11:01AM 8.1281 -75.5004 168° South  Level FlightAware Approximate
11:02AM 8.0069 -75.4754 168° South  Level FlightAware Approximate
11:03AM 7.8858 -75.4505 168° South  Level FlightAware Approximate
11:04AM 7.7623 -75.4500 180° South  Level FlightAware Approximate
11:05AM 7.6386 -75.4500 180° South  Level FlightAware Approximate
11:06AM 7.5150 -75.4499 175° South  Level FlightAware Approximate
11:07AM 7.3919 -75.4387 175° South  Level FlightAware Approximate
11:08AM 7.2685 -75.4333 180° South  Level FlightAware Approximate
11:09AM 7.1449 -75.4333 180° South  Level FlightAware Approximate
11:10AM 7.0213 -75.4333 180° South  Level FlightAware Approximate
11:11AM 6.8977 -75.4333 180° South  Level FlightAware Approximate
11:12AM 6.7743 -75.4273 177° South  Level FlightAware Approximate
11:13AM 6.6508 -75.4204 177° South  Level FlightAware Approximate
11:14AM 6.5273 -75.4167 180° South  Level FlightAware Approximate
11:15AM 6.4037 -75.4167 180° South  Level FlightAware Approximate
11:16AM 6.2801 -75.4167 180° South  Level FlightAware Approximate
11:17AM 6.1645 -75.4231 180° South  Level Estimated
11:18AM 6.1645 -75.4231 180° South  Level Estimated
11:19AM 6.1645 -75.4231 North  Level Estimated
11:20AM 6.1645 -75.4231 North  Level Estimated
11:21AM 6.1645 -75.4231 North  Level Estimated
11:22AM 6.1645 -75.4231 North  Level Estimated
11:23AM 6.1645 -75.4231 North  Level Estimated
11:24AM 6.1645 -75.4231 North  Level Estimated
11:25AM 6.1645 -75.4231 North  Level Estimated
11:26AM 6.1645 -75.4231 North  Level Estimated
11:27AM 6.1645 -75.4231 North  Level Estimated
11:28AM 6.1645 -75.4231 North  Level Estimated
11:29AM 6.1645 -75.4231 North  Level Estimated
11:30AM 6.1645 -75.4231 North  Level Estimated
11:31AM 6.1645 -75.4231 North  Level Estimated
11:32AM 6.1645 -75.4231 North  Level Estimated
11:33AM 6.1645 -75.4231 North  Level Estimated
11:34AM 6.1645 -75.4231 North  Level Estimated